createdAt,value
2022-10-11T00:01:05.154Z,101008.56
2022-10-11T00:03:33.418Z,101017.25
2022-10-11T00:06:03.633Z,101019.50
2022-10-11T00:08:34.676Z,101011.09
2022-10-11T00:11:06.330Z,101003.19
2022-10-11T00:13:34.356Z,101009.13
2022-10-11T00:16:09.007Z,101010.72
2022-10-11T00:18:37.336Z,101005.72
2022-10-11T00:21:12.939Z,101006.78
2022-10-11T00:23:41.983Z,101011.06
2022-10-11T00:26:11.259Z,101011.59
2022-10-11T00:28:39.560Z,101003.28
2022-10-11T00:31:10.577Z,101005.28
2022-10-11T00:33:38.910Z,101002.87
2022-10-11T00:36:08.758Z,101007.25
2022-10-11T00:38:37.021Z,100989.16
2022-10-11T00:41:05.527Z,100999.19
2022-10-11T00:43:34.006Z,100991.53
2022-10-11T00:46:07.569Z,101000.00
2022-10-11T00:48:36.051Z,100987.28
2022-10-11T00:51:13.305Z,100991.28
2022-10-11T00:56:31.561Z,100993.94
2022-10-11T00:59:02.948Z,100987.03
2022-10-11T01:01:34.581Z,100993.03
2022-10-11T01:04:03.491Z,100983.66
2022-10-11T01:06:35.445Z,100975.31
2022-10-11T01:09:04.496Z,100985.81
2022-10-11T01:11:33.194Z,100982.91
2022-10-11T01:14:27.135Z,100970.59
2022-10-11T01:17:06.853Z,100975.44
2022-10-11T01:20:19.034Z,100969.91
2022-10-11T01:23:11.622Z,100968.50
2022-10-11T01:26:07.395Z,100975.97
2022-10-11T01:28:44.258Z,100978.47
2022-10-11T01:31:17.775Z,100973.53
2022-10-11T01:34:03.746Z,100978.56
2022-10-11T01:36:41.888Z,100980.66
2022-10-11T01:39:41.079Z,100980.22
2022-10-11T01:42:12.733Z,100985.44
2022-10-11T01:44:45.301Z,100986.50
2022-10-11T01:47:13.278Z,100991.75
2022-10-11T01:49:42.241Z,100979.69
2022-10-11T01:52:11.560Z,100995.22
2022-10-11T01:55:17.853Z,100992.78
2022-10-11T01:57:58.227Z,100987.41
2022-10-11T02:00:33.889Z,100993.63
2022-10-11T02:03:23.719Z,100994.78
2022-10-11T02:06:01.533Z,101000.25
2022-10-11T02:08:51.558Z,100996.19
2022-10-11T02:11:30.368Z,100998.66
2022-10-11T02:14:10.463Z,101005.94
2022-10-11T02:16:49.562Z,101013.31
2022-10-11T02:19:22.233Z,101004.22
2022-10-11T02:22:05.900Z,101003.81
2022-10-11T02:24:43.357Z,101003.81
2022-10-11T02:27:13.877Z,101000.69
2022-10-11T02:29:47.317Z,100995.66
2022-10-11T02:32:30.404Z,101001.22
2022-10-11T02:35:12.437Z,101000.06
2022-10-11T02:38:01.651Z,100993.50
2022-10-11T02:40:48.785Z,100997.06
2022-10-11T02:43:38.832Z,100996.00
2022-10-11T02:46:20.716Z,100997.31
2022-10-11T02:49:03.345Z,100995.78
2022-10-11T02:51:43.581Z,100992.16
2022-10-11T02:54:25.062Z,101004.78
2022-10-11T02:57:05.269Z,100997.91
2022-10-11T02:59:47.958Z,101002.31
2022-10-11T03:02:28.585Z,100992.25
2022-10-11T03:05:09.350Z,100999.72
2022-10-11T03:07:50.195Z,100991.56
2022-10-11T03:10:30.394Z,100985.78
2022-10-11T03:13:12.821Z,100998.69
2022-10-11T03:16:03.243Z,100994.09
2022-10-11T03:18:47.791Z,100982.87
2022-10-11T03:21:28.384Z,100983.06
2022-10-11T03:24:08.277Z,100987.50
2022-10-11T03:26:51.290Z,100992.31
2022-10-11T03:29:31.800Z,100988.25
2022-10-11T03:32:14.513Z,100994.72
2022-10-11T03:34:55.074Z,100989.87
2022-10-11T03:37:35.159Z,100991.25
2022-10-11T03:40:15.679Z,100988.94
2022-10-11T03:42:56.743Z,100982.59
2022-10-11T03:45:37.216Z,100978.09
2022-10-11T03:48:17.072Z,100985.19
2022-10-11T03:50:57.211Z,100977.94
2022-10-11T03:53:37.323Z,100979.97
2022-10-11T03:56:17.372Z,100972.94
2022-10-11T03:58:57.454Z,100976.84
2022-10-11T04:01:40.391Z,100975.50
2022-10-11T04:04:20.754Z,100975.25
2022-10-11T04:07:00.953Z,100973.53
2022-10-11T04:09:41.054Z,100969.56
2022-10-11T04:12:24.101Z,100977.00
2022-10-11T04:15:05.060Z,100976.13
2022-10-11T04:17:45.932Z,100973.56
2022-10-11T04:20:26.164Z,100966.69
2022-10-11T04:23:06.476Z,100967.28
2022-10-11T04:25:47.287Z,100964.50
2022-10-11T04:28:27.934Z,100965.63
2022-10-11T04:31:08.291Z,100965.81
2022-10-11T04:33:48.085Z,100967.31
2022-10-11T04:36:28.475Z,100968.38
2022-10-11T04:39:08.886Z,100969.66
2022-10-11T04:41:49.928Z,100974.34
2022-10-11T04:44:30.253Z,100974.81
2022-10-11T04:47:10.193Z,100971.09
2022-10-11T04:49:50.227Z,100982.91
2022-10-11T04:52:30.461Z,100969.63
2022-10-11T04:55:11.540Z,100977.25
2022-10-11T04:57:52.156Z,100976.69
2022-10-11T05:00:32.498Z,100964.91
2022-10-11T05:03:12.625Z,100974.78
2022-10-11T05:05:54.203Z,100978.22
2022-10-11T05:08:34.577Z,100983.22
2022-10-11T05:11:17.587Z,100976.66
2022-10-11T05:13:57.441Z,100977.16
2022-10-11T05:16:37.476Z,100976.00
2022-10-11T05:19:17.745Z,100975.00
2022-10-11T05:21:57.799Z,100977.56
2022-10-11T05:24:38.073Z,100981.12
2022-10-11T05:27:17.874Z,100973.66
2022-10-11T05:29:57.981Z,100979.91
2022-10-11T05:32:37.974Z,100979.81
2022-10-11T05:35:18.146Z,100975.38
2022-10-11T05:37:58.407Z,100974.78
2022-10-11T05:40:39.332Z,100973.91
2022-10-11T05:43:20.091Z,100981.88
2022-10-11T05:46:00.008Z,100985.28
2022-10-11T05:48:40.743Z,100980.34
2022-10-11T05:51:21.816Z,100975.63
2022-10-11T05:54:01.961Z,100975.25
2022-10-11T05:56:42.001Z,100987.28
2022-10-11T05:59:22.072Z,100969.91
2022-10-11T06:02:02.258Z,100972.87
2022-10-11T06:04:42.360Z,100976.66
2022-10-11T06:07:23.003Z,100968.31
2022-10-11T06:10:05.274Z,100961.66
2022-10-11T06:12:45.911Z,100955.66
2022-10-11T06:15:26.001Z,100954.63
2022-10-11T06:18:05.985Z,100966.84
2022-10-11T06:20:45.933Z,100950.41
2022-10-11T06:23:26.436Z,100956.66
2022-10-11T06:26:09.319Z,100946.84
2022-10-11T06:28:49.786Z,100945.13
2022-10-11T06:31:29.554Z,100946.94
2022-10-11T06:34:14.104Z,100949.06
2022-10-11T06:36:54.694Z,100939.69
2022-10-11T06:39:35.381Z,100947.03
2022-10-11T06:42:16.891Z,100939.34
2022-10-11T06:44:58.194Z,100944.50
2022-10-11T06:47:38.068Z,100929.56
2022-10-11T06:50:29.942Z,100938.28
2022-10-11T06:53:19.068Z,100935.94
2022-10-11T06:56:07.352Z,100936.88
2022-10-11T06:58:49.062Z,100931.03
2022-10-11T07:01:28.965Z,100921.91
2022-10-11T07:04:12.033Z,100917.28
2022-10-11T07:06:52.481Z,100925.16
2022-10-11T07:09:32.471Z,100918.56
2022-10-11T07:12:12.455Z,100928.25
2022-10-11T07:14:52.509Z,100928.50
2022-10-11T07:17:35.405Z,100919.72
2022-10-11T07:20:15.959Z,100918.06
2022-10-11T07:22:56.048Z,100905.84
2022-10-11T07:25:36.018Z,100905.09
2022-10-11T07:28:16.193Z,100902.09
2022-10-11T07:30:56.439Z,100905.22
2022-10-11T07:33:36.378Z,100899.50
2022-10-11T07:36:16.377Z,100911.87
2022-10-11T07:38:56.366Z,100895.34
2022-10-11T07:41:40.644Z,100894.41
2022-10-11T07:44:24.950Z,100891.63
2022-10-11T07:47:07.782Z,100874.03
2022-10-11T07:49:51.146Z,100879.75
2022-10-11T07:52:31.209Z,100883.38
2022-10-11T07:55:11.379Z,100884.50
2022-10-11T07:57:51.462Z,100874.25
2022-10-11T08:00:31.587Z,100879.03
2022-10-11T08:03:11.917Z,100878.13
2022-10-11T08:05:52.562Z,100860.16
2022-10-11T08:08:33.733Z,100868.22
2022-10-11T08:11:25.000Z,100862.66
2022-10-11T08:14:09.124Z,100854.75
2022-10-11T08:16:49.977Z,100867.00
2022-10-11T08:19:29.939Z,100856.88
2022-10-11T08:22:11.569Z,100858.56
2022-10-11T08:24:51.649Z,100857.63
2022-10-11T08:27:31.706Z,100851.31
2022-10-11T08:30:12.312Z,100855.81
2022-10-11T08:32:53.576Z,100847.72
2022-10-11T08:35:33.537Z,100848.19
2022-10-11T08:38:13.590Z,100849.25
2022-10-11T08:40:59.779Z,100841.50
2022-10-11T08:44:12.364Z,100836.66
2022-10-11T08:47:00.700Z,100835.88
2022-10-11T08:49:40.640Z,100837.81
2022-10-11T08:52:28.643Z,100836.75
2022-10-11T08:55:26.636Z,100835.81
2022-10-11T08:58:13.576Z,100820.41
2022-10-11T09:00:56.957Z,100824.31
2022-10-11T09:03:44.900Z,100836.22
2022-10-11T09:10:03.988Z,100816.81
2022-10-11T09:12:44.928Z,100821.97
2022-10-11T09:15:51.810Z,100812.38
2022-10-11T09:18:50.984Z,100808.81
2022-10-11T09:21:51.519Z,100801.94
2022-10-11T09:24:33.603Z,100810.63
2022-10-11T09:27:37.833Z,100787.53
2022-10-11T09:30:23.519Z,100791.44
2022-10-11T09:33:28.846Z,100797.75
2022-10-11T09:36:30.262Z,100797.50
2022-10-11T09:39:30.525Z,100789.37
2022-10-11T09:42:12.116Z,100790.31
2022-10-11T09:44:51.486Z,100792.75
2022-10-11T09:47:31.119Z,100790.94
2022-10-11T09:50:05.462Z,100790.41
2022-10-11T09:52:34.557Z,100782.41
2022-10-11T09:55:03.506Z,100768.16
2022-10-11T09:57:31.349Z,100771.72
2022-10-11T10:00:35.464Z,100770.19
2022-10-11T10:03:04.915Z,100767.53
2022-10-11T10:05:37.088Z,100764.44
2022-10-11T10:08:23.047Z,100753.47
2022-10-11T10:10:59.420Z,100759.16
2022-10-11T10:13:41.136Z,100747.94
2022-10-11T10:16:26.188Z,100753.41
2022-10-11T10:19:06.369Z,100740.59
2022-10-11T10:21:49.599Z,100745.81
2022-10-11T10:24:33.452Z,100746.16
2022-10-11T10:27:22.823Z,100742.69
2022-10-11T10:30:01.245Z,100736.22
2022-10-11T10:33:21.390Z,100675.56
2022-10-11T10:36:15.925Z,100735.56
2022-10-11T10:38:52.446Z,100735.31
2022-10-11T10:41:21.015Z,100730.66
2022-10-11T10:43:59.894Z,100728.97
2022-10-11T10:46:56.658Z,100724.63
2022-10-11T10:49:54.387Z,100724.44
2022-10-11T10:52:53.749Z,100727.47
2022-10-11T10:55:33.542Z,100714.16
2022-10-11T10:58:29.495Z,100707.59
2022-10-11T11:01:05.800Z,100711.56
2022-10-11T11:03:44.557Z,100706.47
2022-10-11T11:06:36.878Z,100709.09
2022-10-11T11:09:40.272Z,100699.38
2022-10-11T11:12:25.591Z,100693.50
2022-10-11T11:15:05.959Z,100698.09
2022-10-11T11:17:48.809Z,100700.97
2022-10-11T11:20:35.380Z,100704.63
2022-10-11T11:23:20.417Z,100693.59
2022-10-11T11:26:09.014Z,100699.13
2022-10-11T11:28:58.421Z,100692.53
2022-10-11T11:31:41.803Z,100692.19
2022-10-11T11:34:28.152Z,100687.84
2022-10-11T11:37:04.107Z,100685.75
2022-10-11T11:40:04.781Z,100685.34
2022-10-11T11:42:48.162Z,100680.06
2022-10-11T11:45:22.449Z,100682.56
2022-10-11T11:48:19.056Z,100671.84
2022-10-11T11:50:56.089Z,100677.00
2022-10-11T11:53:49.644Z,100675.25
2022-10-11T11:56:29.722Z,100674.22
2022-10-11T11:59:22.237Z,100674.94
2022-10-11T12:02:02.971Z,100677.31
2022-10-11T12:04:36.481Z,100675.19
2022-10-11T12:07:17.795Z,100662.62
2022-10-11T12:09:53.395Z,100673.84
2022-10-11T12:12:34.422Z,100660.75
2022-10-11T12:15:17.391Z,100654.03
2022-10-11T12:17:57.630Z,100662.34
2022-10-11T12:20:39.004Z,100649.41
2022-10-11T12:23:20.065Z,100646.34
2022-10-11T12:26:19.868Z,100650.47
2022-10-11T12:29:01.651Z,100645.94
2022-10-11T12:31:33.813Z,100635.84
2022-10-11T12:34:04.289Z,100637.81
2022-10-11T12:36:44.639Z,100641.47
2022-10-11T12:39:21.557Z,100630.22
2022-10-11T12:41:50.198Z,100634.06
2022-10-11T12:44:30.727Z,100639.56
2022-10-11T12:47:37.029Z,100634.41
2022-10-11T12:50:28.448Z,100627.37
2022-10-11T12:53:19.654Z,100622.31
2022-10-11T12:55:53.277Z,100624.97
2022-10-11T12:58:41.837Z,100621.06
2022-10-11T13:01:22.877Z,100617.00
2022-10-11T13:04:06.774Z,100619.81
2022-10-11T13:06:47.646Z,100626.31
2022-10-11T13:09:33.055Z,100618.72
2022-10-11T13:12:07.079Z,100609.25
2022-10-11T13:14:48.590Z,100605.56
2022-10-11T13:17:27.318Z,100607.50
2022-10-11T13:20:20.696Z,100603.53
2022-10-11T13:22:54.275Z,100606.41
2022-10-11T13:25:28.879Z,100592.59
2022-10-11T13:27:59.898Z,100603.91
2022-10-11T13:30:37.350Z,100606.47
2022-10-11T13:33:14.064Z,100606.34
2022-10-11T13:35:42.391Z,100598.00
2022-10-11T13:38:43.511Z,100595.12
2022-10-11T13:41:11.705Z,100609.97
2022-10-11T13:43:41.028Z,100615.22
2022-10-11T13:46:17.832Z,100605.53
2022-10-11T13:48:46.239Z,100608.53
2022-10-11T13:51:32.724Z,100610.94
2022-10-11T13:54:02.368Z,100612.34
2022-10-11T13:56:35.028Z,100606.41
2022-10-11T13:59:03.591Z,100606.87
2022-10-11T14:01:44.690Z,100610.66
2022-10-11T14:04:17.734Z,100611.13
2022-10-11T14:07:02.872Z,100605.06
2022-10-11T14:09:35.446Z,100604.59
2022-10-11T14:12:38.787Z,100608.44
2022-10-11T14:15:25.063Z,100611.44
2022-10-11T14:17:52.926Z,100615.16
2022-10-11T14:20:29.544Z,100616.13
2022-10-11T14:23:00.400Z,100613.25
2022-10-11T14:25:28.670Z,100621.00
2022-10-11T14:27:56.945Z,100619.56
2022-10-11T14:30:27.783Z,100619.97
2022-10-11T14:32:58.187Z,100629.16
2022-10-11T14:35:32.088Z,100629.84
2022-10-11T14:38:00.221Z,100634.50
2022-10-11T14:40:31.111Z,100631.81
2022-10-11T14:42:59.114Z,100635.47
2022-10-11T14:45:27.239Z,100635.31
2022-10-11T14:47:56.421Z,100636.16
2022-10-11T14:50:27.036Z,100629.50
2022-10-11T14:52:55.495Z,100636.69
2022-10-11T14:55:23.636Z,100628.00
2022-10-11T14:57:51.742Z,100634.72
2022-10-11T15:00:24.865Z,100629.06
2022-10-11T15:02:54.003Z,100633.81
2022-10-11T15:05:24.354Z,100638.69
2022-10-11T15:07:55.131Z,100645.62
2022-10-11T15:10:28.210Z,100649.63
2022-10-11T15:12:57.356Z,100645.34
2022-10-11T15:15:27.983Z,100646.81
2022-10-11T15:18:00.705Z,100643.09
2022-10-11T15:20:33.538Z,100644.44
2022-10-11T15:23:01.626Z,100651.06
2022-10-11T15:25:31.056Z,100650.87
2022-10-11T15:27:58.891Z,100648.28
2022-10-11T15:30:30.308Z,100651.56
2022-10-11T15:32:58.798Z,100634.88
2022-10-11T15:35:27.931Z,100656.09
2022-10-11T15:38:01.381Z,100660.09
2022-10-11T15:40:36.114Z,100656.09
2022-10-11T15:43:04.861Z,100651.94
2022-10-11T15:45:37.269Z,100660.19
2022-10-11T15:48:05.471Z,100656.66
2022-10-11T15:50:40.173Z,100654.91
2022-10-11T15:53:10.583Z,100654.91
2022-10-11T15:55:47.143Z,100651.94
2022-10-11T15:58:17.252Z,100640.16
2022-10-11T16:00:47.420Z,100650.16
2022-10-11T16:03:16.743Z,100653.91
2022-10-11T16:05:44.684Z,100646.44
2022-10-11T16:08:12.892Z,100642.56
2022-10-11T16:10:41.716Z,100650.59
2022-10-11T16:13:10.825Z,100652.00
2022-10-11T16:15:41.042Z,100654.56
2022-10-11T16:18:12.248Z,100654.44
2022-10-11T16:20:41.598Z,100647.03
2022-10-11T16:23:10.530Z,100656.72
2022-10-11T16:25:39.463Z,100657.06
2022-10-11T16:28:11.131Z,100652.81
2022-10-11T16:30:42.626Z,100638.97
2022-10-11T16:33:10.683Z,100648.38
2022-10-11T16:35:42.289Z,100653.41
2022-10-11T16:38:11.283Z,100659.50
2022-10-11T16:40:40.631Z,100650.97
2022-10-11T16:43:09.387Z,100656.38
2022-10-11T16:45:38.139Z,100659.31
2022-10-11T16:48:06.356Z,100656.19
2022-10-11T16:50:39.607Z,100646.53
2022-10-11T16:53:15.897Z,100656.53
2022-10-11T16:55:46.783Z,100656.31
2022-10-11T16:58:15.121Z,100645.56
2022-10-11T17:00:46.054Z,100647.91
2022-10-11T17:03:14.182Z,100640.97
2022-10-11T17:05:42.007Z,100637.53
2022-10-11T17:08:09.842Z,100642.38
2022-10-11T17:10:40.634Z,100645.50
2022-10-11T17:13:08.511Z,100638.78
2022-10-11T17:15:36.674Z,100645.41
2022-10-11T17:18:04.977Z,100637.44
2022-10-11T17:20:33.390Z,100638.75
2022-10-11T17:23:01.230Z,100641.31
2022-10-11T17:25:30.189Z,100641.06
2022-10-11T17:27:58.238Z,100642.47
2022-10-11T17:30:26.468Z,100643.53
2022-10-11T17:32:54.617Z,100642.09
2022-10-11T17:35:22.386Z,100639.00
2022-10-11T17:37:50.352Z,100636.53
2022-10-11T17:40:18.871Z,100635.91
2022-10-11T17:42:48.017Z,100637.69
2022-10-11T17:45:15.821Z,100630.88
2022-10-11T17:47:43.985Z,100628.00
2022-10-11T17:50:11.851Z,100627.94
2022-10-11T17:52:39.658Z,100623.41
2022-10-11T17:55:08.109Z,100608.75
2022-10-11T17:57:35.972Z,100618.28
2022-10-11T18:00:05.671Z,100619.41
2022-10-11T18:02:33.958Z,100613.13
2022-10-11T18:05:05.305Z,100617.59
2022-10-11T18:07:33.922Z,100609.09
2022-10-11T18:10:01.673Z,100612.16
2022-10-11T18:12:30.522Z,100606.56
2022-10-11T18:14:58.724Z,100600.97
2022-10-11T18:19:54.441Z,100607.00
2022-10-11T18:22:22.681Z,100605.06
2022-10-11T18:24:50.524Z,100606.00
2022-10-11T18:27:18.688Z,100605.63
2022-10-11T18:29:46.816Z,100610.63
2022-10-11T18:32:18.395Z,100604.34
2022-10-11T18:34:46.680Z,100605.59
2022-10-11T18:37:14.632Z,100604.72
2022-10-11T18:39:42.544Z,100605.69
2022-10-11T18:42:10.790Z,100600.81
2022-10-11T18:44:38.978Z,100597.84
2022-10-11T18:47:06.835Z,100594.78
2022-10-11T18:49:35.097Z,100595.78
2022-10-11T18:52:02.953Z,100588.69
2022-10-11T18:54:31.048Z,100598.78
2022-10-11T18:57:02.309Z,100599.87
2022-10-11T18:59:30.181Z,100597.34
2022-10-11T19:01:58.058Z,100588.69
2022-10-11T19:04:26.335Z,100586.78
2022-10-11T19:06:54.406Z,100595.16
2022-10-11T19:09:26.583Z,100586.69
2022-10-11T19:11:57.570Z,100590.97
2022-10-11T19:14:28.949Z,100597.38
2022-10-11T19:16:57.623Z,100591.06
2022-10-11T19:19:27.520Z,100585.34
2022-10-11T19:21:55.248Z,100593.25
2022-10-11T19:24:26.906Z,100596.13
2022-10-11T19:27:01.245Z,100598.16
2022-10-11T19:29:31.542Z,100595.59
2022-10-11T19:32:01.129Z,100586.03
2022-10-11T19:34:30.308Z,100591.97
2022-10-11T19:37:01.273Z,100580.69
2022-10-11T19:39:30.035Z,100585.06
2022-10-11T19:41:58.210Z,100581.81
2022-10-11T19:44:26.046Z,100580.28
2022-10-11T19:46:53.924Z,100584.06
2022-10-11T19:49:25.444Z,100576.41
2022-10-11T19:51:55.729Z,100577.66
2022-10-11T19:54:24.372Z,100587.88
2022-10-11T19:56:52.872Z,100590.88
2022-10-11T19:59:20.766Z,100584.31
2022-10-11T20:01:52.664Z,100589.81
2022-10-11T20:07:09.810Z,100591.44
2022-10-11T20:09:38.093Z,100582.22
2022-10-11T20:12:06.140Z,100582.00
2022-10-11T20:14:33.832Z,100575.78
2022-10-11T20:17:02.065Z,100569.72
2022-10-11T20:19:31.307Z,100572.25
2022-10-11T20:22:00.854Z,100546.06
2022-10-11T20:24:33.397Z,100570.22
2022-10-11T20:27:04.412Z,100545.87
2022-10-11T20:29:32.971Z,100558.13
2022-10-11T20:32:00.917Z,100562.59
2022-10-11T20:34:31.688Z,100564.19
2022-10-11T20:37:02.402Z,100559.16
2022-10-11T20:39:30.222Z,100552.28
2022-10-11T20:41:58.325Z,100550.97
2022-10-11T20:44:29.658Z,100552.28
2022-10-11T20:47:03.026Z,100554.12
2022-10-11T20:49:32.677Z,100548.84
2022-10-11T20:52:00.291Z,100553.75
2022-10-11T20:54:29.268Z,100568.47
2022-10-11T20:56:57.978Z,100565.84
2022-10-11T20:59:25.850Z,100573.06
2022-10-11T21:01:53.663Z,100569.50
2022-10-11T21:04:21.848Z,100570.97
2022-10-11T21:06:49.950Z,100568.97
2022-10-11T21:09:17.985Z,100563.53
2022-10-11T21:11:46.541Z,100569.22
2022-10-11T21:14:14.469Z,100569.81
2022-10-11T21:16:42.427Z,100563.22
2022-10-11T21:19:14.494Z,100566.00
2022-10-11T21:21:42.884Z,100567.28
2022-10-11T21:24:11.140Z,100566.63
2022-10-11T21:26:39.101Z,100562.47
2022-10-11T21:29:07.813Z,100569.31
2022-10-11T21:31:36.667Z,100557.44
2022-10-11T21:34:05.480Z,100560.28
2022-10-11T21:36:33.344Z,100555.13
2022-10-11T21:39:01.574Z,100557.47
2022-10-11T21:41:30.393Z,100563.72
2022-10-11T21:43:58.663Z,100558.22
2022-10-11T21:47:05.026Z,100562.13
2022-10-11T21:49:24.390Z,100564.94
2022-10-11T21:51:52.685Z,100574.53
2022-10-11T21:54:20.637Z,100560.31
2022-10-11T21:56:48.546Z,100570.31
2022-10-11T21:59:16.797Z,100574.66
2022-10-11T22:01:47.755Z,100555.28
2022-10-11T22:04:15.996Z,100558.59
2022-10-11T22:06:43.926Z,100540.91
2022-10-11T22:09:12.001Z,100557.97
2022-10-11T22:11:40.165Z,100551.47
2022-10-11T22:14:08.881Z,100556.81
2022-10-11T22:16:36.915Z,100545.87
2022-10-11T22:19:05.286Z,100542.97
2022-10-11T22:21:33.261Z,100549.34
2022-10-11T22:24:01.184Z,100553.78
2022-10-11T22:26:31.534Z,100538.37
2022-10-11T22:29:00.733Z,100539.09
2022-10-11T22:31:29.744Z,100543.09
2022-10-11T22:34:00.272Z,100546.81
2022-10-11T22:36:30.806Z,100537.44
2022-10-11T22:39:02.953Z,100550.09
2022-10-11T22:41:35.771Z,100546.44
2022-10-11T22:44:04.976Z,100539.44
2022-10-11T22:46:33.161Z,100549.94
2022-10-11T22:49:03.970Z,100547.41
2022-10-11T22:51:32.143Z,100541.53
2022-10-11T22:53:59.947Z,100535.66
2022-10-11T22:56:30.625Z,100546.31
2022-10-11T22:58:59.289Z,100546.31
2022-10-11T23:01:27.159Z,100544.22
2022-10-11T23:03:55.102Z,100542.69
2022-10-11T23:06:23.455Z,100553.25
2022-10-11T23:08:51.224Z,100540.59
2022-10-11T23:11:19.147Z,100545.03
2022-10-11T23:13:47.265Z,100541.91
2022-10-11T23:16:18.253Z,100531.97
2022-10-11T23:18:45.943Z,100529.72
2022-10-11T23:21:14.064Z,100530.19
2022-10-11T23:23:41.874Z,100529.63
2022-10-11T23:26:14.602Z,100527.31
2022-10-11T23:28:43.472Z,100523.62
2022-10-11T23:31:14.832Z,100519.06
2022-10-11T23:33:43.849Z,100528.47
2022-10-11T23:36:20.187Z,100507.75
2022-10-11T23:38:53.588Z,100527.94
2022-10-11T23:41:22.758Z,100536.06
2022-10-11T23:43:51.165Z,100530.41
2022-10-11T23:46:19.055Z,100513.28
2022-10-11T23:48:46.866Z,100517.44
2022-10-11T23:51:15.370Z,100516.84
2022-10-11T23:53:43.244Z,100518.44
2022-10-11T23:56:12.157Z,100510.09
2022-10-11T23:58:40.789Z,100503.69
